Herzlich willkommen!

Am freundlichen Bodensee-Flugplatz zwischen Schwarzwald, Rhein und Alpen.

Aktuelles

Bitte beachten Sie unseren Lärmschutzhinweis!

30.07.2021
Flugplatz überschwemmt
Platz bleibt vorraussichtlich bis zum 05.08.2021 (wegen Überschwemmung / weicher RWY/TWY) PPR.
— Flugleitung EDTZ

Live am Platz

Die Bilder unserer Webcams werden alle 5 Minuten aktualisiert.

Sonnenaufgang:

03:59 UTC / 05:59 Lokal

Sonnenuntergang:

19:00 UTC / 21:00 Lokal

METAR (01.08.2021 15:50 UTC):

EDNY 011550Z 17003KT 9999 SCT057 17/12 Q1013
VFR

TAF (01.08.2021 11:00 UTC):

TAF EDNY 011100Z 0112/0212 VRB02KT 9999 SCT009 BKN040 TEMPO 0112/0121 SHRA BKN008 BKN030CB TEMPO 0114/0118 23005KT

Alle Angaben unverbindlich und ohne Gewähr. Zeiten genähert.

Für den Verkehrslandeplatz Konstanz werden keine offiziellen Wetterinformationen ausgegeben. Daher werden zur Orientierung Daten des nahegelegenen Flughafens Friedrichshafen dargestellt.

Das Landeentgelt kann bei uns auch mit aerops bezahlt werden. Die App für's Handy ist kostenfrei erhältlich.